createdAt,value
2022-11-05T00:01:35.088Z,9.78
2022-11-05T00:04:56.855Z,9.73
2022-11-05T00:08:22.719Z,9.64
2022-11-05T00:11:45.331Z,9.48
2022-11-05T00:15:10.385Z,9.45
2022-11-05T00:18:12.914Z,9.40
2022-11-05T00:21:35.215Z,9.42
2022-11-05T00:24:57.241Z,9.40
2022-11-05T00:28:03.577Z,9.35
2022-11-05T00:31:10.856Z,9.24
2022-11-05T00:34:14.433Z,9.20
2022-11-05T00:37:16.883Z,9.18
2022-11-05T00:40:19.705Z,9.17
2022-11-05T00:43:40.979Z,9.11
2022-11-05T00:46:43.473Z,9.03
2022-11-05T00:49:49.401Z,9.05
2022-11-05T00:52:57.252Z,9.00
2022-11-05T00:56:01.114Z,8.99
2022-11-05T00:59:03.675Z,8.92
2022-11-05T01:02:07.078Z,8.96
2022-11-05T01:05:10.636Z,8.86
2022-11-05T01:08:16.322Z,8.96
2022-11-05T01:11:35.364Z,8.97
2022-11-05T01:14:37.884Z,8.88
2022-11-05T01:17:40.416Z,8.85
2022-11-05T01:20:43.683Z,8.87
2022-11-05T01:23:46.945Z,8.79
2022-11-05T01:26:49.711Z,8.73
2022-11-05T01:29:52.237Z,8.68
2022-11-05T01:32:55.560Z,8.66
2022-11-05T01:35:59.118Z,8.63
2022-11-05T01:39:02.061Z,8.59
2022-11-05T01:42:13.841Z,8.60
2022-11-05T01:45:27.858Z,8.57
2022-11-05T01:48:35.471Z,8.58
2022-11-05T01:51:39.144Z,8.56
2022-11-05T01:54:41.868Z,8.59
2022-11-05T01:57:45.186Z,8.50
2022-11-05T02:00:48.744Z,8.50
2022-11-05T02:03:55.550Z,8.48
2022-11-05T02:06:59.407Z,8.51
2022-11-05T02:10:14.445Z,8.54
2022-11-05T02:13:17.536Z,8.49
2022-11-05T02:16:38.911Z,8.41
2022-11-05T02:20:16.502Z,8.41
2022-11-05T02:23:37.298Z,8.39
2022-11-05T02:26:58.495Z,8.33
2022-11-05T02:30:24.294Z,8.32
2022-11-05T02:33:56.628Z,8.35
2022-11-05T02:37:29.000Z,8.26
2022-11-05T02:40:53.981Z,8.25
2022-11-05T02:44:05.399Z,8.29
2022-11-05T02:47:21.489Z,8.25
2022-11-05T02:50:32.798Z,8.19
2022-11-05T02:53:43.014Z,8.15
2022-11-05T02:56:49.511Z,8.19
2022-11-05T03:00:02.035Z,8.16
2022-11-05T03:03:08.620Z,8.14
2022-11-05T03:06:46.520Z,8.14
2022-11-05T03:10:20.059Z,8.15
2022-11-05T03:13:33.424Z,8.16
2022-11-05T03:16:42.235Z,8.19
2022-11-05T03:20:12.814Z,8.18
2022-11-05T03:23:19.195Z,8.17
2022-11-05T03:26:43.426Z,8.18
2022-11-05T03:29:59.298Z,8.17
2022-11-05T03:33:07.141Z,8.18
2022-11-05T03:36:17.896Z,8.16
2022-11-05T03:39:31.351Z,8.14
2022-11-05T03:42:38.839Z,8.16
2022-11-05T03:45:47.560Z,8.17
2022-11-05T03:48:55.439Z,8.20
2022-11-05T03:52:24.350Z,8.24
2022-11-05T03:55:34.667Z,8.23
2022-11-05T03:58:43.654Z,8.18
2022-11-05T04:01:48.093Z,8.18
2022-11-05T04:04:52.138Z,8.21
2022-11-05T04:08:14.593Z,8.21
2022-11-05T04:11:36.530Z,8.21
2022-11-05T04:14:39.729Z,8.17
2022-11-05T04:17:42.132Z,8.12
2022-11-05T04:21:03.903Z,8.11
2022-11-05T04:24:09.722Z,8.14
2022-11-05T04:27:13.239Z,8.11
2022-11-05T04:30:20.837Z,8.09
2022-11-05T04:33:24.217Z,8.08
2022-11-05T04:36:27.243Z,8.10
2022-11-05T04:39:29.736Z,8.10
2022-11-05T04:42:32.232Z,8.09
2022-11-05T04:45:36.247Z,8.08
2022-11-05T04:48:39.745Z,8.10
2022-11-05T04:51:42.412Z,8.10
2022-11-05T04:54:44.900Z,8.10
2022-11-05T04:57:52.891Z,8.08
2022-11-05T05:00:56.297Z,8.07
2022-11-05T05:03:58.794Z,8.10
2022-11-05T05:07:01.302Z,8.10
2022-11-05T05:10:06.630Z,8.12
2022-11-05T05:13:11.885Z,8.10
2022-11-05T05:16:21.601Z,8.11
2022-11-05T05:19:25.604Z,8.06
2022-11-05T05:22:29.321Z,8.03
2022-11-05T05:25:31.781Z,8.10
2022-11-05T05:28:34.360Z,8.06
2022-11-05T05:31:38.577Z,7.99
2022-11-05T05:34:41.087Z,7.97
2022-11-05T05:37:44.427Z,7.99
2022-11-05T05:40:49.910Z,8.03
2022-11-05T05:43:52.526Z,8.06
2022-11-05T05:46:55.836Z,8.07
2022-11-05T05:49:58.531Z,8.07
2022-11-05T05:53:01.059Z,8.06
2022-11-05T05:56:05.583Z,8.12
2022-11-05T05:59:08.289Z,8.11
2022-11-05T06:02:12.711Z,8.15
2022-11-05T06:05:15.549Z,8.17
2022-11-05T06:08:18.801Z,8.18
2022-11-05T06:11:23.582Z,8.10
2022-11-05T06:14:26.029Z,8.18
2022-11-05T06:17:29.307Z,8.16
2022-11-05T06:20:31.760Z,8.19
2022-11-05T06:23:37.212Z,8.26
2022-11-05T06:26:42.910Z,8.23
2022-11-05T06:29:46.722Z,8.29
2022-11-05T06:32:49.636Z,8.32
2022-11-05T06:35:52.794Z,8.36
2022-11-05T06:38:55.288Z,8.31
2022-11-05T06:45:22.038Z,8.30
2022-11-05T06:48:25.474Z,8.27
2022-11-05T06:51:27.986Z,8.29
2022-11-05T06:54:30.476Z,8.22
2022-11-05T06:57:32.913Z,8.30
2022-11-05T07:00:35.940Z,8.36
2022-11-05T07:03:39.559Z,8.38
2022-11-05T07:06:42.892Z,8.45
2022-11-05T07:09:46.202Z,8.48
2022-11-05T07:12:51.919Z,8.58
2022-11-05T07:15:55.975Z,8.61
2022-11-05T07:18:58.411Z,8.62
2022-11-05T07:22:00.849Z,8.73
2022-11-05T07:25:05.904Z,8.69
2022-11-05T07:28:09.674Z,8.74
2022-11-05T07:31:12.914Z,8.77
2022-11-05T07:34:15.906Z,8.71
2022-11-05T07:37:18.967Z,8.76
2022-11-05T07:40:25.065Z,8.78
2022-11-05T07:43:28.429Z,8.76
2022-11-05T07:46:31.765Z,8.77
2022-11-05T07:49:34.953Z,8.78
2022-11-05T07:52:37.393Z,8.84
2022-11-05T07:55:41.938Z,8.93
2022-11-05T07:58:45.460Z,8.86
2022-11-05T08:01:48.142Z,8.94
2022-11-05T08:04:51.532Z,8.98
2022-11-05T08:07:55.933Z,8.94
2022-11-05T08:11:06.841Z,8.98
2022-11-05T08:14:09.430Z,9.09
2022-11-05T08:17:15.975Z,9.02
2022-11-05T08:20:21.997Z,9.07
2022-11-05T08:23:24.434Z,9.14
2022-11-05T08:26:27.469Z,9.12
2022-11-05T08:29:31.459Z,9.23
2022-11-05T08:32:34.168Z,9.17
2022-11-05T08:35:38.765Z,9.32
2022-11-05T08:38:41.211Z,9.44
2022-11-05T08:41:45.654Z,9.55
2022-11-05T08:44:48.996Z,9.44
2022-11-05T08:47:51.429Z,9.57
2022-11-05T08:50:54.899Z,9.76
2022-11-05T08:53:57.540Z,9.65
2022-11-05T08:57:01.070Z,9.54
2022-11-05T09:00:03.925Z,9.63
2022-11-05T09:03:08.333Z,9.77
2022-11-05T09:06:11.109Z,9.81
2022-11-05T09:09:13.655Z,9.79
2022-11-05T09:12:16.311Z,9.87
2022-11-05T09:15:18.793Z,9.94
2022-11-05T09:18:22.196Z,9.86
2022-11-05T09:21:25.571Z,9.95
2022-11-05T09:24:29.019Z,9.86
2022-11-05T09:27:31.934Z,10.04
2022-11-05T09:30:34.549Z,10.17
2022-11-05T09:33:39.432Z,10.09
2022-11-05T09:36:42.652Z,10.27
2022-11-05T09:39:47.156Z,10.28
2022-11-05T09:42:54.074Z,10.31
2022-11-05T09:46:00.372Z,10.22
2022-11-05T09:49:06.951Z,10.50
2022-11-05T09:52:15.292Z,10.40
2022-11-05T09:55:29.259Z,10.48
2022-11-05T09:58:38.596Z,10.49
2022-11-05T10:01:43.336Z,10.71
2022-11-05T10:04:51.233Z,10.77
2022-11-05T10:08:00.183Z,10.45
2022-11-05T10:11:07.826Z,10.62
2022-11-05T10:15:00.008Z,10.92
2022-11-05T10:18:12.632Z,11.07
2022-11-05T10:21:27.774Z,11.09
2022-11-05T10:24:43.808Z,10.92
2022-11-05T10:27:58.134Z,11.01
2022-11-05T10:31:07.060Z,11.01
2022-11-05T10:34:13.625Z,10.90
2022-11-05T10:37:16.700Z,10.94
2022-11-05T10:40:40.258Z,10.76
2022-11-05T10:43:52.303Z,10.90
2022-11-05T10:47:25.419Z,10.97
2022-11-05T10:50:30.115Z,10.88
2022-11-05T10:53:39.170Z,10.93
2022-11-05T10:56:42.531Z,10.96
2022-11-05T10:59:45.734Z,10.95
2022-11-05T11:02:54.270Z,11.29
2022-11-05T11:06:04.379Z,11.31
2022-11-05T11:09:20.837Z,11.42
2022-11-05T11:12:38.198Z,11.52
2022-11-05T11:15:46.253Z,11.39
2022-11-05T11:18:54.777Z,11.40
2022-11-05T11:22:03.316Z,11.36
2022-11-05T11:25:25.451Z,11.44
2022-11-05T11:28:34.293Z,11.57
2022-11-05T11:31:39.523Z,11.89
2022-11-05T11:34:44.532Z,11.81
2022-11-05T11:37:51.877Z,11.68
2022-11-05T11:41:22.378Z,11.92
2022-11-05T11:44:31.069Z,12.15
2022-11-05T11:47:43.933Z,12.19
2022-11-05T11:50:48.858Z,11.98
2022-11-05T11:53:57.448Z,12.19
2022-11-05T11:57:00.791Z,12.31
2022-11-05T12:00:09.463Z,12.40
2022-11-05T12:03:35.752Z,12.21
2022-11-05T12:06:44.384Z,12.16
2022-11-05T12:10:05.628Z,12.09
2022-11-05T12:13:21.278Z,12.13
2022-11-05T12:16:53.225Z,12.30
2022-11-05T12:20:11.342Z,12.37
2022-11-05T12:23:29.147Z,12.32
2022-11-05T12:27:07.925Z,12.29
2022-11-05T12:30:17.615Z,12.17
2022-11-05T12:33:25.742Z,12.19
2022-11-05T12:36:37.124Z,12.28
2022-11-05T12:39:44.418Z,12.46
2022-11-05T12:43:11.722Z,12.51
2022-11-05T12:46:26.656Z,12.52
2022-11-05T12:49:47.547Z,12.36
2022-11-05T12:53:24.766Z,12.28
2022-11-05T12:56:33.330Z,12.25
2022-11-05T12:59:54.845Z,12.35
2022-11-05T13:03:06.058Z,12.35
2022-11-05T13:06:17.258Z,12.36
2022-11-05T13:09:33.101Z,12.37
2022-11-05T13:12:41.223Z,12.35
2022-11-05T13:15:56.728Z,12.45
2022-11-05T13:19:13.563Z,12.33
2022-11-05T13:22:16.064Z,12.41
2022-11-05T13:25:29.076Z,12.42
2022-11-05T13:28:49.190Z,12.46
2022-11-05T13:32:08.322Z,12.28
2022-11-05T13:35:25.990Z,12.29
2022-11-05T13:38:47.537Z,12.28
2022-11-05T13:42:16.082Z,12.23
2022-11-05T13:45:44.075Z,12.25
2022-11-05T13:49:18.784Z,12.13
2022-11-05T13:52:34.122Z,12.15
2022-11-05T13:56:01.620Z,12.14
2022-11-05T13:59:35.028Z,12.12
2022-11-05T14:03:01.608Z,12.13
2022-11-05T14:06:10.603Z,12.04
2022-11-05T14:09:21.004Z,12.04
2022-11-05T14:12:34.306Z,12.02
2022-11-05T14:15:37.452Z,11.97
2022-11-05T14:18:43.985Z,11.96
2022-11-05T14:21:47.871Z,11.98
2022-11-05T14:24:51.455Z,11.94
2022-11-05T14:27:58.279Z,11.96
2022-11-05T14:31:05.438Z,11.93
2022-11-05T14:34:11.293Z,11.92
2022-11-05T14:37:29.863Z,11.89
2022-11-05T14:40:38.892Z,11.92
2022-11-05T14:43:51.888Z,11.93
2022-11-05T14:46:59.740Z,11.86
2022-11-05T14:50:11.709Z,11.89
2022-11-05T14:53:35.335Z,11.86
2022-11-05T14:56:53.231Z,11.81
2022-11-05T15:00:01.092Z,11.85
2022-11-05T15:03:34.760Z,11.83
2022-11-05T15:06:39.498Z,11.83
2022-11-05T15:09:55.747Z,11.84
2022-11-05T15:13:05.312Z,11.80
2022-11-05T15:16:08.296Z,11.86
2022-11-05T15:19:21.266Z,11.78
2022-11-05T15:22:36.496Z,11.76
2022-11-05T15:26:04.294Z,11.73
2022-11-05T15:29:21.635Z,11.68
2022-11-05T15:32:26.738Z,11.69
2022-11-05T15:35:30.373Z,11.71
2022-11-05T15:38:35.026Z,11.71
2022-11-05T15:41:40.023Z,11.65
2022-11-05T15:45:00.067Z,11.54
2022-11-05T15:48:13.493Z,11.52
2022-11-05T15:51:17.759Z,11.50
2022-11-05T15:54:30.335Z,11.43
2022-11-05T15:57:37.962Z,11.45
2022-11-05T16:00:49.066Z,11.42
2022-11-05T16:03:53.232Z,11.40
2022-11-05T16:07:10.381Z,11.42
2022-11-05T16:10:23.745Z,11.40
2022-11-05T16:13:30.790Z,11.37
2022-11-05T16:16:34.346Z,11.36
2022-11-05T16:19:41.792Z,11.38
2022-11-05T16:22:50.843Z,11.42
2022-11-05T16:25:53.661Z,11.30
2022-11-05T16:28:59.312Z,11.32
2022-11-05T16:32:05.337Z,11.31
2022-11-05T16:35:21.014Z,11.25
2022-11-05T16:38:24.810Z,11.23
2022-11-05T16:41:28.365Z,11.17
2022-11-05T16:44:32.600Z,11.13
2022-11-05T16:47:36.222Z,11.03
2022-11-05T16:50:39.444Z,10.98
2022-11-05T16:53:43.358Z,10.94
2022-11-05T16:56:47.589Z,10.85
2022-11-05T16:59:50.513Z,10.85
2022-11-05T17:02:54.502Z,10.70
2022-11-05T17:05:59.216Z,10.76
2022-11-05T17:09:02.010Z,10.65
2022-11-05T17:12:05.184Z,10.62
2022-11-05T17:15:27.453Z,10.60
2022-11-05T17:18:30.782Z,10.55
2022-11-05T17:21:36.994Z,10.47
2022-11-05T17:24:39.699Z,10.42
2022-11-05T17:27:43.388Z,10.41
2022-11-05T17:30:52.982Z,10.45
2022-11-05T17:33:58.382Z,10.44
2022-11-05T17:37:01.074Z,10.39
2022-11-05T17:40:08.229Z,10.34
2022-11-05T17:43:11.434Z,10.31
2022-11-05T17:46:17.102Z,10.29
2022-11-05T17:49:19.831Z,10.36
2022-11-05T17:52:22.624Z,10.36
2022-11-05T17:55:26.347Z,10.30
2022-11-05T17:58:29.105Z,10.32
2022-11-05T18:01:34.661Z,10.30
2022-11-05T18:04:38.993Z,10.29
2022-11-05T18:07:42.146Z,10.38
2022-11-05T18:10:45.471Z,10.35
2022-11-05T18:13:51.006Z,10.41
2022-11-05T18:17:00.066Z,10.41
2022-11-05T18:20:04.830Z,10.36
2022-11-05T18:23:10.653Z,10.37
2022-11-05T18:26:16.215Z,10.36
2022-11-05T18:29:19.937Z,10.39
2022-11-05T18:32:23.218Z,10.37
2022-11-05T18:35:27.645Z,10.35
2022-11-05T18:38:30.523Z,10.32
2022-11-05T18:41:33.448Z,10.34
2022-11-05T18:44:39.657Z,10.36
2022-11-05T18:47:43.266Z,10.31
2022-11-05T18:50:46.863Z,10.30
2022-11-05T18:53:50.292Z,10.31
2022-11-05T18:56:54.162Z,10.33
2022-11-05T18:59:57.836Z,10.38
2022-11-05T19:03:01.310Z,10.30
2022-11-05T19:06:05.503Z,10.29
2022-11-05T19:09:11.979Z,10.30
2022-11-05T19:12:15.233Z,10.27
2022-11-05T19:15:19.025Z,10.28
2022-11-05T19:18:21.736Z,10.27
2022-11-05T19:21:26.348Z,10.23
2022-11-05T19:24:29.885Z,10.24
2022-11-05T19:27:36.076Z,10.26
2022-11-05T19:30:39.845Z,10.27
2022-11-05T19:33:44.417Z,10.28
2022-11-05T19:36:47.922Z,10.24
2022-11-05T19:39:51.102Z,10.24
2022-11-05T19:42:58.385Z,10.23
2022-11-05T19:46:04.540Z,10.20
2022-11-05T19:49:08.209Z,10.24
2022-11-05T19:52:12.922Z,10.27
2022-11-05T19:55:15.680Z,10.27
2022-11-05T19:58:18.515Z,10.28
2022-11-05T20:01:24.144Z,10.27
2022-11-05T20:04:29.050Z,10.30
2022-11-05T20:07:31.897Z,10.32
2022-11-05T20:10:37.605Z,10.31
2022-11-05T20:13:41.966Z,10.26
2022-11-05T20:16:46.946Z,10.28
2022-11-05T20:19:53.452Z,10.22
2022-11-05T20:22:57.744Z,10.15
2022-11-05T20:26:03.825Z,10.10
2022-11-05T20:29:12.983Z,10.13
2022-11-05T20:32:16.414Z,10.10
2022-11-05T20:35:19.938Z,10.14
2022-11-05T20:38:23.450Z,10.15
2022-11-05T20:41:27.153Z,10.18
2022-11-05T20:44:30.454Z,10.14
2022-11-05T20:47:33.302Z,10.15
2022-11-05T20:50:41.896Z,10.10
2022-11-05T20:53:46.221Z,10.07
2022-11-05T20:56:50.519Z,10.09
2022-11-05T20:59:53.342Z,9.99
2022-11-05T21:02:57.031Z,10.01
2022-11-05T21:06:04.171Z,10.02
2022-11-05T21:09:10.818Z,10.00
2022-11-05T21:12:13.706Z,10.02
2022-11-05T21:15:22.899Z,10.03
2022-11-05T21:18:29.731Z,10.00
2022-11-05T21:21:37.388Z,10.05
2022-11-05T21:24:43.393Z,10.07
2022-11-05T21:27:46.124Z,10.00
2022-11-05T21:30:49.494Z,10.06
2022-11-05T21:33:55.160Z,10.02
2022-11-05T21:36:58.902Z,10.04
2022-11-05T21:40:01.896Z,9.97
2022-11-05T21:43:06.034Z,9.98
2022-11-05T21:46:12.530Z,9.95
2022-11-05T21:49:16.109Z,9.91
2022-11-05T21:52:37.315Z,9.90
2022-11-05T21:55:59.898Z,9.83
2022-11-05T21:59:21.372Z,9.90
2022-11-05T22:02:25.255Z,9.83
2022-11-05T22:05:28.656Z,9.83
2022-11-05T22:08:32.075Z,9.87
2022-11-05T22:11:37.466Z,9.89
2022-11-05T22:14:41.206Z,9.93
2022-11-05T22:17:46.893Z,9.91
2022-11-05T22:20:49.734Z,9.96
2022-11-05T22:23:53.749Z,9.99
2022-11-05T22:26:56.224Z,9.93
2022-11-05T22:29:58.807Z,9.88
2022-11-05T22:33:02.578Z,9.86
2022-11-05T22:36:05.311Z,9.87
2022-11-05T22:39:09.682Z,9.87
2022-11-05T22:42:12.499Z,9.81
2022-11-05T22:45:16.095Z,9.80
2022-11-05T22:48:18.840Z,9.88
2022-11-05T22:51:24.971Z,9.90
2022-11-05T22:54:27.705Z,9.87
2022-11-05T22:57:30.270Z,9.91
2022-11-05T23:00:36.002Z,9.95
2022-11-05T23:03:40.362Z,9.94
2022-11-05T23:07:02.282Z,9.91
2022-11-05T23:10:23.702Z,9.93
2022-11-05T23:13:26.781Z,9.97
2022-11-05T23:16:48.388Z,9.93
2022-11-05T23:20:10.492Z,9.87
2022-11-05T23:23:32.003Z,9.85
2022-11-05T23:26:51.299Z,9.84
2022-11-05T23:29:56.508Z,9.82
2022-11-05T23:32:59.683Z,9.85
2022-11-05T23:36:20.856Z,9.88
2022-11-05T23:39:24.162Z,9.91
2022-11-05T23:42:46.909Z,9.86
2022-11-05T23:46:08.516Z,9.83
2022-11-05T23:49:12.219Z,9.81
2022-11-05T23:52:14.782Z,9.81
2022-11-05T23:55:18.284Z,9.76
2022-11-05T23:58:21.715Z,9.82
